Time;durP1;ratioP1;P1;durP2;ratioP2;P2;SDS_P1;SDS_P2;PMS_P1;PMS_P2;Temp;Humidity;BMP_temperature;BMP_pressure;BME280_temperature;BME280_humidity;BME280_pressure;Samples;Min_cycle;Max_cycle;Signal;HPM_P1;HPM_P2
2021/04/23 00:02:11;;;;;;;31.95;9.53;;;;;;;1.15;70.30;99220.83;2160912;82;21139;-73
2021/04/23 00:05:12;;;;;;;32.15;9.18;;;;;;;1.15;70.37;99214.37;2161001;82;21614;-73
2021/04/23 00:08:13;;;;;;;32.55;8.90;;;;;;;1.11;70.40;99215.30;2161076;82;21602;-73
2021/04/23 00:11:14;;;;;;;32.17;9.58;;;;;;;1.09;70.51;99213.61;2161033;82;21305;-73
2021/04/23 00:14:15;;;;;;;31.05;9.53;;;;;;;1.07;71.22;99214.08;2161435;82;21577;-73
2021/04/23 00:17:16;;;;;;;32.93;9.18;;;;;;;1.07;71.50;99206.33;2161174;82;21104;-73
2021/04/23 00:20:17;;;;;;;30.72;9.15;;;;;;;1.06;71.15;99213.20;2161042;82;21253;-73
2021/04/23 00:23:18;;;;;;;33.70;9.93;;;;;;;1.04;71.62;99211.95;2139972;82;21265;-73
2021/04/23 00:26:19;;;;;;;31.55;10.00;;;;;;;1.02;72.50;99211.13;2161049;82;21741;-73
2021/04/23 00:29:20;;;;;;;33.18;9.58;;;;;;;0.99;72.52;99213.77;2161040;82;21135;-73
2021/04/23 00:35:40;;;;;;;36.15;10.05;;;;;;;0.92;73.26;99212.58;2161410;82;21266;-73
2021/04/23 00:38:41;;;;;;;36.45;11.22;;;;;;;0.86;73.51;99210.52;2140221;82;21131;-73
2021/04/23 00:41:42;;;;;;;36.58;11.12;;;;;;;0.81;73.81;99208.88;2161288;82;21278;-73
2021/04/23 00:44:43;;;;;;;32.05;10.35;;;;;;;0.76;74.48;99204.21;2161401;82;21142;-73
2021/04/23 00:47:44;;;;;;;34.23;10.05;;;;;;;0.72;74.00;99207.71;2161005;82;21182;-73
2021/04/23 00:50:45;;;;;;;33.18;9.90;;;;;;;0.69;73.47;99205.60;2161486;82;21277;-72
2021/04/23 00:53:47;;;;;;;33.40;9.73;;;;;;;0.68;73.12;99201.76;2138861;82;21147;-73
2021/04/23 00:56:48;;;;;;;32.13;10.10;;;;;;;0.65;73.66;99205.68;2167203;82;21583;-73
2021/04/23 00:59:49;;;;;;;33.35;10.32;;;;;;;0.62;73.79;99198.82;2178429;81;21159;-73
2021/04/23 01:02:50;;;;;;;29.63;8.93;;;;;;;0.60;74.60;99203.14;2178489;81;21123;-73
2021/04/23 01:05:51;;;;;;;35.45;9.63;;;;;;;0.59;74.42;99200.16;2178363;81;21134;-73
2021/04/23 01:08:52;;;;;;;32.30;9.35;;;;;;;0.60;74.30;99197.98;2178448;81;21095;-73
2021/04/23 01:11:53;;;;;;;31.00;9.40;;;;;;;0.62;75.28;99205.73;2178458;81;21154;-72
2021/04/23 01:14:54;;;;;;;30.50;9.10;;;;;;;0.61;74.35;99198.84;2178787;82;21131;-73
2021/04/23 01:17:55;;;;;;;30.57;10.25;;;;;;;0.62;73.84;99207.86;2178427;81;21170;-73
2021/04/23 01:20:56;;;;;;;32.03;9.45;;;;;;;0.59;73.54;99205.33;2178407;81;21118;-73
2021/04/23 01:23:57;;;;;;;32.35;9.30;;;;;;;0.59;73.18;99216.07;2178568;81;21135;-73
2021/04/23 01:26:58;;;;;;;28.27;8.85;;;;;;;0.60;72.94;99207.46;2178503;81;21135;-73
2021/04/23 01:29:59;;;;;;;31.90;9.50;;;;;;;0.56;74.06;99213.12;2178870;82;21154;-73
2021/04/23 01:33:00;;;;;;;35.08;9.53;;;;;;;0.50;73.92;99213.19;2178772;81;21137;-73
2021/04/23 01:36:01;;;;;;;29.70;8.23;;;;;;;0.48;73.69;99213.20;2178385;81;21135;-73
2021/04/23 01:39:02;;;;;;;32.05;9.88;;;;;;;0.49;73.17;99216.66;2178824;81;21106;-73
2021/04/23 01:42:03;;;;;;;31.70;9.40;;;;;;;0.30;71.80;99229.81;2178391;81;21316;-73
2021/04/23 01:45:04;;;;;;;29.98;8.75;;;;;;;0.08;71.97;99224.48;2178375;81;21154;-73
2021/04/23 01:48:05;;;;;;;36.40;10.32;;;;;;;0.01;72.71;99224.14;2178378;81;21158;-73
2021/04/23 01:51:06;;;;;;;34.75;9.80;;;;;;;-0.01;72.66;99221.14;2178403;81;21154;-73
2021/04/23 01:54:07;;;;;;;31.55;9.43;;;;;;;0.11;73.77;99219.28;2178765;81;21578;-73
2021/04/23 01:57:08;;;;;;;33.13;8.08;;;;;;;0.11;73.77;99219.28;2178365;81;21135;-73
2021/04/23 02:00:09;;;;;;;29.77;7.55;;;;;;;0.19;73.17;99219.18;2150604;82;21281;-73
2021/04/23 02:03:11;;;;;;;30.90;9.53;;;;;;;0.22;73.30;99224.33;2178371;81;21280;-73
2021/04/23 02:06:12;;;;;;;34.50;9.53;;;;;;;0.19;73.70;99223.92;2178732;81;21297;-73
2021/04/23 02:09:13;;;;;;;35.85;10.03;;;;;;;0.20;74.03;99232.51;2178372;81;21660;-73
2021/04/23 02:12:14;;;;;;;30.70;8.98;;;;;;;0.25;74.15;99226.87;2178457;81;21139;-73
2021/04/23 02:15:15;;;;;;;33.92;8.55;;;;;;;0.28;73.80;99232.83;2178475;82;21139;-73
2021/04/23 02:18:16;;;;;;;27.93;7.62;;;;;;;0.30;73.63;99232.80;2178346;81;21131;-73
2021/04/23 02:21:17;;;;;;;24.25;6.50;;;;;;;0.30;73.66;99232.39;2178460;82;21602;-73
2021/04/23 02:24:18;;;;;;;27.37;7.47;;;;;;;0.23;73.61;99232.47;2150721;82;21270;-73
2021/04/23 02:27:19;;;;;;;32.28;7.60;;;;;;;0.23;74.00;99232.47;2178409;82;21174;-73
2021/04/23 02:30:20;;;;;;;25.50;7.20;;;;;;;0.27;74.16;99236.72;2178310;81;21151;-73
2021/04/23 02:33:21;;;;;;;26.65;7.58;;;;;;;0.27;74.36;99232.40;2178474;81;21111;-73
2021/04/23 02:36:23;;;;;;;29.27;7.50;;;;;;;0.27;74.80;99236.72;2150608;82;21650;-73
2021/04/23 02:39:24;;;;;;;28.02;8.20;;;;;;;0.15;74.29;99232.13;2178449;81;21167;-73
2021/04/23 02:42:25;;;;;;;30.90;8.95;;;;;;;0.04;73.95;99231.84;2178474;81;21673;-73
2021/04/23 02:45:26;;;;;;;48.75;15.35;;;;;;;0.04;73.75;99233.13;2178334;81;21312;-73
2021/04/23 02:48:28;;;;;;;74.62;23.85;;;;;;;-0.02;73.35;99242.63;2178052;82;21547;-73
2021/04/23 02:51:29;;;;;;;58.25;17.70;;;;;;;-0.13;73.57;99241.05;2178363;81;21099;-73
2021/04/23 02:54:30;;;;;;;44.93;13.75;;;;;;;-0.18;73.64;99244.98;2178327;81;21115;-73
2021/04/23 02:57:31;;;;;;;40.00;11.43;;;;;;;-0.18;74.82;99239.82;2170867;81;21143;-73
2021/04/23 03:00:32;;;;;;;34.95;11.08;;;;;;;-0.15;74.94;99247.97;2160872;82;21104;-73
2021/04/23 03:03:33;;;;;;;41.35;12.30;;;;;;;-0.09;74.92;99238.86;2160887;82;21631;-73
2021/04/23 03:06:34;;;;;;;43.85;13.40;;;;;;;-0.10;73.91;99241.89;2160900;82;21167;-73
2021/04/23 03:09:35;;;;;;;32.17;9.28;;;;;;;-0.21;73.29;99239.41;2160886;82;21155;-73
2021/04/23 03:12:36;;;;;;;33.33;9.25;;;;;;;-0.29;73.87;99242.50;2161255;82;21570;-73
2021/04/23 03:15:37;;;;;;;31.33;10.25;;;;;;;-0.36;73.87;99243.42;2160950;82;21605;-73
2021/04/23 03:18:38;;;;;;;28.05;9.78;;;;;;;-0.44;73.71;99249.95;2161012;82;21127;-73
2021/04/23 03:21:39;;;;;;;29.80;9.58;;;;;;;-0.49;73.79;99250.42;2161041;82;21091;-73
2021/04/23 03:24:40;;;;;;;31.73;11.00;;;;;;;-0.54;73.60;99255.63;2160893;82;21152;-73
2021/04/23 03:27:41;;;;;;;35.55;11.68;;;;;;;-0.59;73.64;99259.98;2160864;82;21107;-73
2021/04/23 03:30:42;;;;;;;30.85;10.60;;;;;;;-0.60;73.47;99260.84;2160913;82;21151;-73
2021/04/23 03:33:43;;;;;;;31.70;10.18;;;;;;;-0.62;75.02;99261.27;2161188;82;21156;-73
2021/04/23 03:36:44;;;;;;;33.63;9.03;;;;;;;-0.64;75.01;99243.70;2161274;82;21131;-73
2021/04/23 03:39:45;;;;;;;28.52;9.28;;;;;;;-0.51;74.89;99267.63;2161290;82;21297;-73
2021/04/23 03:42:46;;;;;;;38.40;10.70;;;;;;;-0.47;75.22;99265.45;2161133;82;21115;-73
2021/04/23 03:45:48;;;;;;;29.98;10.28;;;;;;;-0.40;75.40;99264.53;2161091;82;21175;-73
2021/04/23 03:48:49;;;;;;;34.45;11.05;;;;;;;-0.29;75.58;99269.56;2161673;82;21699;-73
2021/04/23 03:51:50;;;;;;;33.98;11.73;;;;;;;-0.18;75.40;99274.19;2161171;82;21133;-73
2021/04/23 03:54:51;;;;;;;34.83;11.95;;;;;;;-0.09;75.44;99276.26;2161112;82;21148;-73
2021/04/23 03:57:52;;;;;;;34.23;12.20;;;;;;;-0.01;75.63;99271.88;2165591;81;21289;-73
2021/04/23 04:00:53;;;;;;;32.65;11.45;;;;;;;0.07;75.65;99274.36;2171365;82;21159;-73
2021/04/23 04:03:54;;;;;;;35.90;10.25;;;;;;;0.17;76.07;99266.93;2171263;82;21099;-73
2021/04/23 04:06:55;;;;;;;32.93;10.35;;;;;;;0.26;75.86;99272.41;2171235;82;21131;-73
2021/04/23 04:09:56;;;;;;;31.95;10.23;;;;;;;0.37;76.71;99278.75;2171218;82;21104;-73
2021/04/23 04:12:57;;;;;;;32.93;9.90;;;;;;;0.46;76.24;99281.20;2171225;82;21122;-73
2021/04/23 04:15:58;;;;;;;28.10;8.30;;;;;;;0.56;76.18;99285.41;2171245;82;21138;-73
2021/04/23 04:18:59;;;;;;;28.27;8.48;;;;;;;0.73;77.00;99294.64;2171164;82;21792;-73
2021/04/23 04:22:00;;;;;;;29.67;8.75;;;;;;;0.88;77.04;99291.86;2171319;82;21147;-73
2021/04/23 04:25:01;;;;;;;31.57;10.03;;;;;;;0.95;76.90;99292.18;2171210;82;21123;-73
2021/04/23 04:28:02;;;;;;;36.40;11.97;;;;;;;1.15;76.20;99292.30;2171262;82;21159;-73
2021/04/23 04:31:03;;;;;;;37.98;12.53;;;;;;;1.32;75.99;99294.64;2171319;82;21151;-72
2021/04/23 04:34:04;;;;;;;36.80;11.08;;;;;;;1.47;76.28;99306.48;2171464;82;21720;-73
2021/04/23 04:37:05;;;;;;;31.80;10.35;;;;;;;1.68;76.00;99306.13;2171224;82;21270;-73
2021/04/23 04:40:06;;;;;;;32.17;11.03;;;;;;;1.88;75.94;99307.48;2171288;82;21736;-73
2021/04/23 04:43:07;;;;;;;33.20;12.28;;;;;;;1.98;76.10;99306.88;2171238;82;21265;-73
2021/04/23 04:46:08;;;;;;;33.88;11.83;;;;;;;2.00;76.00;99317.63;2171156;82;21131;-72
2021/04/23 04:49:09;;;;;;;33.98;11.95;;;;;;;1.93;76.12;99317.33;2171186;82;21578;-72
2021/04/23 04:52:10;;;;;;;32.88;11.00;;;;;;;1.86;76.79;99316.57;2171211;82;21628;-73
2021/04/23 04:55:11;;;;;;;29.65;9.15;;;;;;;1.82;76.51;99316.66;2171311;82;21144;-72
2021/04/23 04:58:12;;;;;;;30.35;9.03;;;;;;;1.81;77.78;99322.70;2174474;81;21151;-73
2021/04/23 05:01:15;;;;;;;27.40;8.83;;;;;;;1.75;77.62;99325.41;2178473;81;21590;-73
2021/04/23 05:04:16;;;;;;;25.77;8.25;;;;;;;1.81;77.85;99332.63;2150981;82;21716;-74
2021/04/23 05:07:18;;;;;;;30.57;9.85;;;;;;;2.00;78.01;99331.02;2179171;81;21586;-72
2021/04/23 05:10:19;;;;;;;27.50;9.28;;;;;;;2.20;77.50;99331.95;2178426;81;21111;-71
2021/04/23 05:13:20;;;;;;;32.30;9.55;;;;;;;2.48;77.62;99335.28;2178542;81;21143;-72
2021/04/23 05:16:21;;;;;;;28.15;8.70;;;;;;;2.76;77.21;99337.72;2178451;81;21138;-72
2021/04/23 05:19:22;;;;;;;27.93;9.33;;;;;;;2.88;77.59;99341.78;2178898;82;21146;-72
2021/04/23 05:22:23;;;;;;;26.95;9.88;;;;;;;2.92;77.59;99343.88;2178464;81;21170;-76
2021/04/23 05:25:24;;;;;;;25.62;7.53;;;;;;;3.20;78.71;99344.56;2178391;81;21170;-72
2021/04/23 05:28:25;;;;;;;26.62;7.45;;;;;;;3.56;78.97;99354.97;2178502;81;21127;-72
2021/04/23 05:31:26;;;;;;;27.20;7.92;;;;;;;3.54;77.80;99352.86;2178398;81;21733;-72
2021/04/23 05:34:27;;;;;;;31.73;8.53;;;;;;;3.38;79.38;99369.23;2178422;81;21135;-72
2021/04/23 05:37:28;;;;;;;32.00;8.75;;;;;;;3.38;79.38;99369.23;2178431;81;21273;-72
2021/04/23 05:40:29;;;;;;;25.17;8.38;;;;;;;3.38;78.83;99360.16;2178347;81;21614;-72
2021/04/23 05:43:30;;;;;;;24.15;7.20;;;;;;;3.32;78.45;99361.15;2178791;81;21578;-73
2021/04/23 05:46:31;;;;;;;27.60;7.87;;;;;;;3.35;78.53;99367.98;2178365;81;21602;-73
2021/04/23 05:49:33;;;;;;;28.15;8.30;;;;;;;3.34;78.67;99368.44;2178483;81;21111;-73
2021/04/23 05:52:34;;;;;;;27.10;7.45;;;;;;;3.33;79.38;99365.42;2150788;82;21272;-74
2021/04/23 05:55:35;;;;;;;27.93;8.50;;;;;;;3.44;79.18;99362.14;2178403;81;21115;-73
2021/04/23 05:58:37;;;;;;;29.60;8.63;;;;;;;3.55;78.57;99361.03;2178313;81;21284;-72
2021/04/23 06:01:38;;;;;;;26.48;7.03;;;;;;;3.61;78.00;99366.09;2178372;81;21154;-72
2021/04/23 06:04:39;;;;;;;26.52;7.55;;;;;;;3.93;77.52;99372.23;2178385;81;21292;-73
2021/04/23 06:07:40;;;;;;;26.85;7.22;;;;;;;4.16;78.87;99383.33;2178318;81;21123;-73
2021/04/23 06:10:42;;;;;;;24.15;6.47;;;;;;;4.21;77.00;99390.56;2178592;81;21288;-72
2021/04/23 06:13:43;;;;;;;24.32;7.70;;;;;;;3.99;76.70;99385.92;2178540;81;21178;-73
2021/04/23 06:16:44;;;;;;;24.52;7.97;;;;;;;3.84;77.76;99385.45;2178388;82;21155;-72
2021/04/23 06:19:45;;;;;;;27.15;8.58;;;;;;;3.75;77.77;99378.30;2178373;81;21736;-72
2021/04/23 06:22:46;;;;;;;29.42;9.00;;;;;;;3.68;78.09;99379.33;2178403;81;21598;-73
2021/04/23 06:25:49;;;;;;;27.10;8.50;;;;;;;3.87;78.71;99376.29;2178367;81;21151;-73
2021/04/23 06:28:50;;;;;;;27.07;8.43;;;;;;;4.45;77.29;99374.78;2178365;81;21733;-73
2021/04/23 06:31:51;;;;;;;25.32;8.23;;;;;;;4.81;77.24;99380.27;2178336;81;21130;-73
2021/04/23 06:34:52;;;;;;;26.77;8.48;;;;;;;4.92;74.19;99378.68;2178394;81;21717;-72
2021/04/23 06:37:53;;;;;;;28.50;8.70;;;;;;;5.03;74.78;99388.33;2178464;81;21154;-72
2021/04/23 06:40:54;;;;;;;27.58;7.50;;;;;;;5.44;73.03;99375.80;2178478;81;21159;-73
2021/04/23 06:43:55;;;;;;;26.15;8.18;;;;;;;5.58;72.05;99379.27;2178349;81;21586;-72
2021/04/23 06:46:56;;;;;;;24.60;7.30;;;;;;;5.68;71.64;99384.58;2178291;81;21166;-72
2021/04/23 06:49:57;;;;;;;28.32;9.13;;;;;;;5.60;71.66;99376.62;2178295;81;21127;-72
2021/04/23 06:52:59;;;;;;;24.77;8.33;;;;;;;5.65;71.40;99373.44;2178465;81;21142;-72
2021/04/23 06:56:01;;;;;;;24.95;8.00;;;;;;;6.08;74.87;99373.34;2178363;82;21099;-72
2021/04/23 06:59:02;;;;;;;25.27;8.83;;;;;;;5.98;69.04;99384.98;2168411;82;21717;-72
2021/04/23 07:02:03;;;;;;;24.23;8.00;;;;;;;5.68;70.73;99375.94;2161003;82;21159;-72
2021/04/23 07:05:05;;;;;;;23.52;8.98;;;;;;;5.49;72.27;99370.47;2161287;82;21134;-72
2021/04/23 07:08:06;;;;;;;26.57;8.63;;;;;;;5.94;73.05;99377.67;2160921;82;21175;-72
2021/04/23 07:11:09;;;;;;;26.95;8.55;;;;;;;6.22;70.89;99380.24;2139935;82;21125;-72
2021/04/23 07:14:11;;;;;;;29.90;9.05;;;;;;;6.49;69.71;99379.33;2161101;82;21123;-72
2021/04/23 07:17:12;;;;;;;25.25;8.28;;;;;;;6.35;69.90;99379.80;2161270;82;21159;-72
2021/04/23 07:20:13;;;;;;;24.50;7.90;;;;;;;6.54;68.77;99381.33;2161234;82;21119;-72
2021/04/23 07:23:16;;;;;;;27.58;8.28;;;;;;;6.99;67.34;99380.55;2161621;82;21147;-72
2021/04/23 07:26:19;;;;;;;25.05;8.73;;;;;;;6.82;66.88;99381.16;2161095;82;21293;-72
2021/04/23 07:29:20;;;;;;;27.52;9.58;;;;;;;6.69;68.49;99382.52;2161171;82;21152;-72
2021/04/23 07:32:21;;;;;;;25.37;8.25;;;;;;;7.00;68.94;99380.11;2161226;82;21128;-72
2021/04/23 07:35:22;;;;;;;28.15;8.15;;;;;;;6.96;66.86;99385.88;2161134;82;21717;-72
2021/04/23 07:38:24;;;;;;;27.90;8.10;;;;;;;7.18;67.46;99379.84;2161343;82;21281;-72
2021/04/23 07:41:25;;;;;;;22.70;7.15;;;;;;;7.34;66.96;99378.36;2161113;82;21630;-72
2021/04/23 07:44:27;;;;;;;25.12;8.20;;;;;;;7.34;64.89;99386.20;2161131;82;21586;-72
2021/04/23 07:47:28;;;;;;;26.55;8.35;;;;;;;7.17;65.10;99376.41;2161528;82;21607;-72
2021/04/23 07:50:30;;;;;;;25.97;8.08;;;;;;;6.87;66.22;99390.14;2161207;82;21120;-72
2021/04/23 07:53:31;;;;;;;20.65;6.75;;;;;;;7.03;66.92;99388.66;2161226;82;21749;-72
2021/04/23 07:56:32;;;;;;;25.72;7.85;;;;;;;6.83;63.46;99395.91;2161049;82;21140;-72
2021/04/23 07:59:33;;;;;;;23.12;7.17;;;;;;;7.23;66.96;99392.28;2167540;81;21179;-72
2021/04/23 08:02:34;;;;;;;22.70;7.08;;;;;;;7.60;62.46;99389.08;2171263;82;21165;-72
2021/04/23 08:05:37;;;;;;;26.80;8.20;;;;;;;7.83;61.74;99378.60;2141963;82;21285;-73
2021/04/23 08:08:38;;;;;;;22.00;6.55;;;;;;;7.86;62.56;99383.70;2171560;82;21135;-73
2021/04/23 08:11:39;;;;;;;25.77;8.03;;;;;;;7.77;60.67;99386.23;2171256;82;21135;-72
2021/04/23 08:14:43;;;;;;;24.77;8.03;;;;;;;7.91;64.01;99372.62;2171374;82;21301;-72
2021/04/23 08:17:45;;;;;;;24.05;6.35;;;;;;;8.09;61.80;99381.47;2171207;82;21312;-72
2021/04/23 08:20:46;;;;;;;22.55;6.78;;;;;;;8.20;60.02;99387.53;2171581;82;21281;-72
2021/04/23 08:23:47;;;;;;;24.40;6.35;;;;;;;8.61;58.59;99371.40;2171512;82;21282;-72
2021/04/23 08:26:48;;;;;;;21.97;6.00;;;;;;;8.91;56.13;99363.57;2171189;82;21140;-73
2021/04/23 08:29:49;;;;;;;17.67;4.87;;;;;;;8.42;55.07;99369.16;2171208;82;21175;-72
2021/04/23 08:32:50;;;;;;;21.57;5.65;;;;;;;7.90;53.90;99379.61;2171334;82;21123;-73
2021/04/23 08:35:51;;;;;;;20.02;5.90;;;;;;;7.57;56.60;99386.59;2171228;82;21150;-72
2021/04/23 08:38:52;;;;;;;25.85;6.87;;;;;;;7.39;57.85;99386.01;2171548;82;21527;-73
2021/04/23 08:41:54;;;;;;;22.35;6.47;;;;;;;7.21;59.27;99383.20;2171213;82;21305;-72
2021/04/23 08:44:55;;;;;;;29.72;10.13;;;;;;;7.67;59.21;99380.55;2171596;82;21143;-72
2021/04/23 08:47:57;;;;;;;23.30;6.17;;;;;;;8.18;58.62;99373.70;2171171;82;21281;-72
2021/04/23 08:50:58;;;;;;;21.95;6.62;;;;;;;7.98;56.88;99366.23;2171437;82;21159;-72
2021/04/23 08:53:59;;;;;;;21.27;5.30;;;;;;;8.25;55.18;99372.52;2171233;82;21288;-72
2021/04/23 08:57:00;;;;;;;21.30;6.00;;;;;;;8.89;55.17;99353.61;2171325;82;21723;-73
2021/04/23 09:00:01;;;;;;;19.85;5.72;;;;;;;9.29;50.98;99357.00;2176275;81;21166;-72
2021/04/23 09:03:02;;;;;;;26.45;7.33;;;;;;;8.93;52.21;99367.78;2150679;82;21122;-72
2021/04/23 09:06:03;;;;;;;17.70;4.53;;;;;;;8.37;50.28;99359.38;2178455;81;21328;-72
2021/04/23 09:09:04;;;;;;;16.95;4.70;;;;;;;8.06;51.86;99377.66;2178455;82;21268;-73
2021/04/23 09:12:05;;;;;;;20.62;5.10;;;;;;;7.74;53.74;99370.69;2178559;81;21289;-72
2021/04/23 09:15:06;;;;;;;20.97;4.40;;;;;;;7.57;52.58;99368.31;2178437;81;21586;-72
2021/04/23 09:18:08;;;;;;;16.42;4.30;;;;;;;7.72;52.58;99378.59;2178477;81;21297;-73
2021/04/23 09:21:14;;;;;;;17.95;4.50;;;;;;;8.38;48.03;99376.30;2178555;81;21289;-72
2021/04/23 09:24:13;;;;;;;15.58;4.05;;;;;;;9.09;50.26;99355.31;2178361;82;21280;-72
2021/04/23 09:27:14;;;;;;;17.23;4.20;;;;;;;9.16;46.43;99352.33;2178387;81;21305;-72
2021/04/23 09:30:15;;;;;;;18.15;4.47;;;;;;;8.97;48.95;99343.66;2178396;81;21593;-73
2021/04/23 09:33:17;;;;;;;19.92;4.78;;;;;;;8.58;48.94;99333.62;2178561;81;21276;-73
2021/04/23 09:36:18;;;;;;;19.95;5.42;;;;;;;8.07;51.34;99363.68;2178431;81;21273;-73
2021/04/23 09:39:19;;;;;;;17.52;4.67;;;;;;;7.84;51.28;99353.73;2178612;82;21296;-72
2021/04/23 09:42:20;;;;;;;20.32;4.70;;;;;;;8.48;51.63;99351.95;2178673;81;21134;-73
2021/04/23 09:45:21;;;;;;;17.52;4.65;;;;;;;8.93;48.11;99363.02;2178502;81;21312;-73
2021/04/23 09:48:22;;;;;;;17.77;4.55;;;;;;;9.47;47.13;99350.89;2178408;81;21721;-75
2021/04/23 09:51:23;;;;;;;19.92;4.78;;;;;;;9.65;46.55;99338.66;2178423;82;21301;-73
2021/04/23 09:54:24;;;;;;;19.87;4.47;;;;;;;9.68;47.16;99354.69;2178524;81;21582;-73
2021/04/23 09:57:27;;;;;;;18.48;4.80;;;;;;;9.55;44.86;99323.02;2178395;81;21131;-72
2021/04/23 10:00:29;;;;;;;15.90;4.10;;;;;;;9.31;45.58;99328.97;2165016;81;21714;-74
2021/04/23 10:03:30;;;;;;;14.15;4.05;;;;;;;9.29;42.92;99335.59;2161379;82;21162;-73
2021/04/23 10:06:33;;;;;;;24.07;4.37;;;;;;;8.90;46.58;99349.62;2161088;82;21305;-74
2021/04/23 10:09:34;;;;;;;;;;;;;;;8.06;53.41;99407.70;2163662;82;21754;-77
2021/04/23 10:12:35;;;;;;;16.75;4.10;;;;;;;7.01;58.64;99397.00;2160911;82;20135;-73
2021/04/23 10:15:36;;;;;;;19.07;4.80;;;;;;;6.71;60.13;99401.13;2160964;82;21640;-74
2021/04/23 10:18:37;;;;;;;23.07;5.45;;;;;;;6.53;62.40;99420.86;2161182;81;21281;-75
2021/04/23 10:21:38;;;;;;;16.57;4.35;;;;;;;6.21;63.85;99407.19;2160960;82;21139;-73
2021/04/23 10:24:39;;;;;;;22.07;5.10;;;;;;;6.10;63.68;99415.81;2160964;82;21139;-74
2021/04/23 10:27:40;;;;;;;21.37;5.95;;;;;;;5.98;64.03;99412.33;2160924;81;21139;-73
2021/04/23 10:30:41;;;;;;;19.48;4.87;;;;;;;5.91;65.68;99435.06;2160938;82;21142;-73
2021/04/23 10:33:42;;;;;;;21.07;5.10;;;;;;;5.97;66.10;99407.98;2160984;82;21127;-73
2021/04/23 10:36:43;;;;;;;16.12;4.50;;;;;;;6.37;67.82;99414.48;2161173;82;21308;-73
2021/04/23 10:39:44;;;;;;;18.15;4.72;;;;;;;6.89;61.58;99401.36;2160907;82;21195;-73
2021/04/23 10:42:47;;;;;;;15.85;4.53;;;;;;;7.54;60.91;99389.33;2160966;82;21104;-73
2021/04/23 10:45:50;;;;;;;18.70;4.42;;;;;;;8.15;60.13;99383.34;2160885;82;21163;-74
2021/04/23 10:48:51;;;;;;;;;;;;;;;8.59;53.07;99376.30;2163471;82;21135;-72
2021/04/23 10:51:52;;;;;;;15.75;4.17;;;;;;;8.97;53.85;99359.36;2160898;82;20505;-73
2021/04/23 10:54:56;;;;;;;18.85;4.55;;;;;;;9.39;54.60;99361.34;2161075;82;21559;-73
2021/04/23 10:57:57;;;;;;;16.10;4.37;;;;;;;9.74;51.98;99371.44;2160929;82;21143;-73
2021/04/23 11:00:57;;;;;;;15.93;4.37;;;;;;;10.02;52.69;99375.31;2175412;81;21146;-73
2021/04/23 11:04:00;;;;;;;16.05;4.50;;;;;;;10.33;52.25;99364.56;2178368;81;21126;-74
2021/04/23 11:07:01;;;;;;;16.82;4.17;;;;;;;10.68;53.80;99354.06;2178306;82;21724;-72
2021/04/23 11:10:02;;;;;;;14.50;4.12;;;;;;;10.27;51.27;99354.41;2178339;81;21257;-72
2021/04/23 11:13:03;;;;;;;15.60;4.20;;;;;;;9.79;51.72;99358.11;2178617;81;21332;-73
2021/04/23 11:16:04;;;;;;;18.55;5.00;;;;;;;9.38;52.50;99362.26;2178358;81;21613;-73
2021/04/23 11:19:05;;;;;;;14.93;4.30;;;;;;;9.02;51.62;99366.52;2178333;81;21130;-72
2021/04/23 11:22:06;;;;;;;18.25;4.72;;;;;;;8.48;53.16;99381.55;2178493;81;21598;-73
2021/04/23 11:25:13;;;;;;;17.02;4.60;;;;;;;7.97;55.91;99391.95;2178371;81;21276;-72
2021/04/23 11:28:14;;;;;;;18.42;5.03;;;;;;;7.47;58.32;99400.92;2178334;81;21166;-74
2021/04/23 11:31:15;;;;;;;20.27;5.22;;;;;;;7.01;60.90;99390.91;2178364;81;21288;-73
2021/04/23 11:34:16;;;;;;;15.23;4.25;;;;;;;6.97;60.30;99379.77;2178582;81;21151;-73
2021/04/23 11:37:17;;;;;;;21.15;6.03;;;;;;;7.10;59.48;99390.59;2178331;81;21146;-72
2021/04/23 11:40:18;;;;;;;22.30;5.75;;;;;;;7.18;61.44;99378.08;2178353;81;21135;-72
2021/04/23 11:43:19;;;;;;;12.23;3.67;;;;;;;7.20;58.71;99398.92;2178435;81;21693;-72
2021/04/23 11:46:20;;;;;;;16.65;4.28;;;;;;;7.06;56.46;99386.39;2178330;81;21131;-73
2021/04/23 11:49:21;;;;;;;19.12;4.90;;;;;;;6.92;57.01;99372.12;2178446;81;21158;-73
2021/04/23 11:52:22;;;;;;;23.25;6.10;;;;;;;6.98;58.14;99368.86;2178336;81;21265;-73
2021/04/23 11:55:23;;;;;;;22.05;5.85;;;;;;;7.15;59.54;99357.80;2178354;81;21673;-74
2021/04/23 11:58:25;;;;;;;18.12;5.50;;;;;;;7.78;58.24;99353.52;2178298;81;21620;-72
2021/04/23 12:01:26;;;;;;;21.82;6.85;;;;;;;8.61;55.80;99347.86;2178513;81;21746;-74
2021/04/23 12:04:27;;;;;;;18.77;5.20;;;;;;;9.21;55.62;99339.05;2178593;81;21253;-72
2021/04/23 12:07:28;;;;;;;16.62;4.40;;;;;;;9.73;52.05;99357.95;2178482;81;21154;-73
2021/04/23 12:10:29;;;;;;;15.43;4.45;;;;;;;9.30;51.83;99361.33;2178609;81;21602;-72
2021/04/23 12:13:30;;;;;;;21.23;5.10;;;;;;;8.85;55.98;99356.84;2178512;81;21127;-72
2021/04/23 12:16:31;;;;;;;16.65;4.72;;;;;;;8.60;56.27;99356.61;2178511;81;21257;-73
2021/04/23 12:19:32;;;;;;;21.60;5.10;;;;;;;8.44;56.30;99362.98;2178483;81;21146;-72
2021/04/23 12:22:33;;;;;;;19.90;5.60;;;;;;;8.30;57.84;99358.78;2178599;81;21119;-72
2021/04/23 12:25:34;;;;;;;18.65;5.15;;;;;;;8.28;56.69;99354.92;2178472;81;21151;-72
2021/04/23 12:28:36;;;;;;;19.70;5.13;;;;;;;8.54;54.41;99363.91;2178671;81;21286;-72
2021/04/23 12:31:38;;;;;;;21.37;6.42;;;;;;;8.90;57.17;99353.55;2178498;81;21293;-73
2021/04/23 12:34:39;;;;;;;23.57;6.20;;;;;;;9.13;54.42;99356.41;2178599;81;21316;-74
2021/04/23 12:37:40;;;;;;;23.42;6.25;;;;;;;9.47;53.87;99359.22;2178585;81;21119;-74
2021/04/23 12:40:42;;;;;;;21.48;6.92;;;;;;;9.79;54.98;99343.70;2178496;81;21143;-72
2021/04/23 12:43:43;;;;;;;19.17;5.65;;;;;;;10.14;54.58;99334.52;2178605;82;21597;-72
2021/04/23 12:46:44;;;;;;;21.95;6.25;;;;;;;10.51;54.62;99306.42;2178910;81;21293;-72
2021/04/23 12:49:47;;;;;;;20.27;6.15;;;;;;;10.93;51.08;99324.70;2178560;82;21284;-72
2021/04/23 12:52:48;;;;;;;23.22;6.40;;;;;;;10.86;50.22;99319.41;2178637;82;21277;-72
2021/04/23 12:55:49;;;;;;;21.57;5.25;;;;;;;10.54;52.50;99303.19;2178842;81;21134;-74
2021/04/23 12:58:50;;;;;;;21.60;5.83;;;;;;;10.13;51.81;99303.98;2178818;81;21138;-75
2021/04/23 13:01:51;;;;;;;18.62;5.70;;;;;;;10.13;51.98;99331.06;2161706;81;21147;-73
2021/04/23 13:04:52;;;;;;;21.10;5.97;;;;;;;10.48;54.30;99322.32;2161407;82;21674;-74
2021/04/23 13:07:53;;;;;;;22.42;5.72;;;;;;;10.83;50.06;99336.64;2161380;82;21301;-72
2021/04/23 13:10:56;;;;;;;20.20;5.47;;;;;;;11.00;49.94;99320.81;2161750;82;21289;-72
2021/04/23 13:13:57;;;;;;;19.80;5.22;;;;;;;11.37;50.19;99315.31;2161919;82;21280;-72
2021/04/23 13:16:58;;;;;;;17.73;5.08;;;;;;;11.39;47.96;99311.67;2161123;82;21142;-73
2021/04/23 13:19:59;;;;;;;19.73;5.50;;;;;;;10.66;48.43;99327.04;2161009;82;21156;-72
2021/04/23 13:23:00;;;;;;;19.32;4.83;;;;;;;10.01;50.17;99377.09;2161057;82;21622;-73
2021/04/23 13:26:01;;;;;;;19.65;5.50;;;;;;;9.42;51.15;99403.09;2161001;82;21649;-73
2021/04/23 13:29:02;;;;;;;17.20;5.22;;;;;;;8.74;54.92;99373.48;2160958;82;21127;-75
2021/04/23 13:32:03;;;;;;;19.77;6.03;;;;;;;8.14;56.99;99378.19;2160996;82;21199;-74
2021/04/23 13:35:05;;;;;;;21.33;6.28;;;;;;;7.93;57.49;99379.92;2161004;82;21189;-74
2021/04/23 13:38:06;;;;;;;20.57;6.20;;;;;;;8.00;59.19;99377.91;2161001;82;21123;-73
2021/04/23 13:41:07;;;;;;;18.95;4.97;;;;;;;8.77;59.68;99375.48;2161363;82;21575;-73
2021/04/23 13:44:08;;;;;;;17.82;5.10;;;;;;;8.64;58.48;99371.26;2139932;82;21165;-73
2021/04/23 13:47:10;;;;;;;18.00;5.40;;;;;;;8.52;59.15;99373.56;2160915;82;21155;-74
2021/04/23 13:50:11;;;;;;;;;;;;;;;8.40;58.94;99373.14;2163598;82;21107;-73
2021/04/23 13:53:13;;;;;;;19.75;5.53;;;;;;;8.39;58.31;99375.83;2140005;82;20580;-73
2021/04/23 13:56:14;;;;;;;21.10;5.97;;;;;;;8.30;57.55;99388.84;2161095;82;21108;-74
2021/04/23 13:59:15;;;;;;;18.55;5.58;;;;;;;8.19;58.63;99397.15;2160963;82;21139;-73
2021/04/23 14:02:16;;;;;;;19.27;5.65;;;;;;;8.34;58.65;99396.94;2161079;82;21128;-75
2021/04/23 14:05:17;;;;;;;18.10;5.12;;;;;;;8.12;57.89;99408.30;2161245;82;21282;-74
2021/04/23 14:08:18;;;;;;;21.05;5.78;;;;;;;7.80;58.44;99402.64;2160954;82;21168;-73
2021/04/23 14:11:19;;;;;;;19.17;5.10;;;;;;;7.61;59.28;99399.92;2161095;82;21591;-73
2021/04/23 14:14:20;;;;;;;24.72;5.90;;;;;;;7.44;59.71;99399.71;2160938;82;21140;-73